ENTO/TRF METAR and TAF weather

Enter ICAO airport designator
Station Type Date Time Source
ENTO METAR 2018/10/16 21:20 UTC NOAA

ENTO 162120Z AUTO 32003KT 9999 OVC003/// 07/07 Q1017


Station Type Date Time Source
ENTO Decoded METAR 2018/10/16 21:20 UTC NOAA

Torp, Norway (ENTO) 59-12N 010-16E 88M
Oct 16, 2018 - 05:20 PM EDT / 2018.10.16 2120 UTC
Wind: from the NW (320 degrees) at 3 MPH (3 KT):0
Visibility: greater than 7 mile(s):0
Sky conditions: overcast
Temperature: 44 F (7 C)
Dew Point: 44 F (7 C)
Relative Humidity: 100%
Pressure (altimeter): 30.03 in. Hg (1017 hPa)
ob: ENTO 162120Z AUTO 32003KT 9999 OVC003/// 07/07 Q1017
cycle: 21

Station Type Date Time Source
ENTO TAF 2018/10/16 21:36 UTC NOAA

TAF TAF
AMD ENTO 162123Z 1621/1718 VRB05KT 9999 SCT003 OVC008
TEMPO 1621/1710 1200 -DZRA BR OVC002
BECMG 1706/1709 20010KT PROB40 1709/1718 FEW008 BKN025


Example: see airport list